createdAt,value
2022-11-28T00:00:22.432Z,101738.44
2022-11-28T00:03:09.869Z,101740.44
2022-11-28T00:05:36.942Z,101740.69
2022-11-28T00:08:04.814Z,101743.13
2022-11-28T00:10:33.103Z,101743.00
2022-11-28T00:13:00.543Z,101731.25
2022-11-28T00:15:27.539Z,101736.38
2022-11-28T00:17:54.745Z,101742.03
2022-11-28T00:20:21.677Z,101738.75
2022-11-28T00:22:48.783Z,101740.44
2022-11-28T00:25:15.890Z,101735.78
2022-11-28T00:27:44.506Z,101750.22
2022-11-28T00:30:12.216Z,101747.75
2022-11-28T00:32:39.582Z,101746.31
2022-11-28T00:35:06.956Z,101744.91
2022-11-28T00:37:34.233Z,101745.19
2022-11-28T00:40:01.131Z,101754.72
2022-11-28T00:42:28.710Z,101751.72
2022-11-28T00:44:56.939Z,101756.63
2022-11-28T00:47:24.031Z,101747.66
2022-11-28T00:49:51.868Z,101752.84
2022-11-28T00:52:19.273Z,101746.47
2022-11-28T00:54:46.411Z,101748.00
2022-11-28T00:57:13.656Z,101753.31
2022-11-28T00:59:40.682Z,101752.88
2022-11-28T01:02:09.353Z,101753.25
2022-11-28T01:04:36.359Z,101760.22
2022-11-28T01:07:03.535Z,101765.34
2022-11-28T01:09:30.601Z,101759.97
2022-11-28T01:11:57.818Z,101769.28
2022-11-28T01:14:25.979Z,101767.59
2022-11-28T01:16:53.288Z,101762.69
2022-11-28T01:19:21.755Z,101762.13
2022-11-28T01:21:49.308Z,101746.94
2022-11-28T01:24:17.200Z,101753.84
2022-11-28T01:26:44.708Z,101759.28
2022-11-28T01:29:11.776Z,101753.69
2022-11-28T01:31:39.793Z,101760.28
2022-11-28T01:34:06.911Z,101756.09
2022-11-28T01:36:35.583Z,101750.22
2022-11-28T01:39:02.512Z,101747.84
2022-11-28T01:41:30.083Z,101745.91
2022-11-28T01:43:59.163Z,101742.16
2022-11-28T01:46:26.648Z,101743.03
2022-11-28T01:48:56.628Z,101734.97
2022-11-28T01:51:24.466Z,101733.97
2022-11-28T01:53:53.532Z,101731.66
2022-11-28T01:56:25.197Z,101723.53
2022-11-28T01:58:57.731Z,101721.66
2022-11-28T02:01:25.812Z,101729.47
2022-11-28T02:03:54.325Z,101719.22
2022-11-28T02:06:24.422Z,101726.41
2022-11-28T02:08:53.438Z,101724.72
2022-11-28T02:11:49.847Z,101723.88
2022-11-28T02:14:33.396Z,101729.38
2022-11-28T02:17:13.327Z,101718.81
2022-11-28T02:20:24.712Z,101719.22
2022-11-28T02:22:59.319Z,101713.19
2022-11-28T02:26:02.705Z,101711.19
2022-11-28T02:29:03.339Z,101706.84
2022-11-28T02:32:06.857Z,101703.06
2022-11-28T02:34:47.263Z,101706.28
2022-11-28T02:37:26.125Z,101705.03
2022-11-28T02:40:03.323Z,101699.44
2022-11-28T02:42:40.322Z,101697.06
2022-11-28T02:45:13.703Z,101690.31
2022-11-28T02:47:45.932Z,101696.19
2022-11-28T02:50:16.085Z,101690.72
2022-11-28T02:52:47.403Z,101690.78
2022-11-28T02:55:15.523Z,101689.84
2022-11-28T02:57:47.895Z,101681.94
2022-11-28T03:00:28.029Z,101676.00
2022-11-28T03:03:15.949Z,101676.41
2022-11-28T03:05:49.010Z,101680.25
2022-11-28T03:08:33.692Z,101676.28
2022-11-28T03:11:06.577Z,101680.16
2022-11-28T03:13:41.979Z,101679.47
2022-11-28T03:16:20.966Z,101634.69
2022-11-28T03:19:00.095Z,101675.97
2022-11-28T03:21:38.127Z,101645.28
2022-11-28T03:24:10.378Z,101682.31
2022-11-28T03:26:47.131Z,101673.75
2022-11-28T03:29:20.826Z,101682.72
2022-11-28T03:31:54.733Z,101685.56
2022-11-28T03:34:29.313Z,101682.50
2022-11-28T03:37:01.411Z,101672.38
2022-11-28T03:39:31.986Z,101681.59
2022-11-28T03:42:05.916Z,101687.13
2022-11-28T03:44:40.567Z,101683.63
2022-11-28T03:47:08.939Z,101686.31
2022-11-28T03:49:40.351Z,101683.25
2022-11-28T03:52:11.448Z,101678.47
2022-11-28T03:54:47.661Z,101679.94
2022-11-28T03:57:22.891Z,101681.22
2022-11-28T03:59:52.416Z,101680.06
2022-11-28T04:02:27.581Z,101680.50
2022-11-28T04:05:02.244Z,101678.53
2022-11-28T04:07:37.033Z,101682.63
2022-11-28T04:10:09.258Z,101677.88
2022-11-28T04:12:46.668Z,101672.75
2022-11-28T04:15:17.653Z,101667.78
2022-11-28T04:17:52.045Z,101670.22
2022-11-28T04:20:28.685Z,101655.72
2022-11-28T04:23:01.196Z,101669.38
2022-11-28T04:25:32.591Z,101669.09
2022-11-28T04:28:04.343Z,101659.25
2022-11-28T04:30:32.302Z,101679.91
2022-11-28T04:33:03.919Z,101675.25
2022-11-28T04:35:37.610Z,101673.00
2022-11-28T04:38:06.703Z,101675.94
2022-11-28T04:40:38.859Z,101670.13
2022-11-28T04:43:10.928Z,101671.44
2022-11-28T04:45:44.392Z,101664.09
2022-11-28T04:48:11.641Z,101677.66
2022-11-28T04:50:46.909Z,101664.16
2022-11-28T04:53:34.822Z,101657.97
2022-11-28T04:56:07.525Z,101651.25
2022-11-28T04:58:38.161Z,101654.34
2022-11-28T05:01:10.283Z,101654.31
2022-11-28T05:03:42.435Z,101647.47
2022-11-28T05:06:23.999Z,101649.13
2022-11-28T05:08:51.147Z,101654.06
2022-11-28T05:11:18.648Z,101657.59
2022-11-28T05:13:45.956Z,101660.41
2022-11-28T05:16:17.571Z,101664.56
2022-11-28T05:18:44.888Z,101666.53
2022-11-28T05:21:13.623Z,101670.94
2022-11-28T05:23:42.561Z,101664.91
2022-11-28T05:26:10.472Z,101668.22
2022-11-28T05:28:37.609Z,101661.91
2022-11-28T05:31:06.441Z,101659.25
2022-11-28T05:33:33.546Z,101658.50
2022-11-28T05:36:12.395Z,101658.19
2022-11-28T05:38:41.591Z,101654.09
2022-11-28T05:41:09.695Z,101662.06
2022-11-28T05:43:36.914Z,101649.69
2022-11-28T05:46:05.864Z,101628.78
2022-11-28T05:48:32.895Z,101644.22
2022-11-28T05:51:00.171Z,101648.47
2022-11-28T05:53:27.398Z,101641.81
2022-11-28T05:55:55.920Z,101646.13
2022-11-28T05:58:22.990Z,101649.41
2022-11-28T06:00:50.241Z,101652.81
2022-11-28T06:03:17.177Z,101646.91
2022-11-28T06:05:44.541Z,101645.88
2022-11-28T06:08:12.813Z,101644.97
2022-11-28T06:10:40.511Z,101640.69
2022-11-28T06:13:09.176Z,101638.69
2022-11-28T06:15:38.252Z,101630.25
2022-11-28T06:18:05.407Z,101641.47
2022-11-28T06:20:35.313Z,101633.03
2022-11-28T06:23:04.955Z,101644.28
2022-11-28T06:25:32.275Z,101634.66
2022-11-28T06:27:59.216Z,101638.25
2022-11-28T06:30:27.704Z,101634.72
2022-11-28T06:32:54.628Z,101632.97
2022-11-28T06:35:21.981Z,101633.94
2022-11-28T06:37:48.916Z,101633.16
2022-11-28T06:40:16.560Z,101639.91
2022-11-28T06:42:43.479Z,101632.16
2022-11-28T06:45:11.541Z,101642.13
2022-11-28T06:47:39.864Z,101624.75
2022-11-28T06:50:09.760Z,101621.78
2022-11-28T06:52:36.774Z,101624.38
2022-11-28T06:55:04.197Z,101618.06
2022-11-28T06:57:32.740Z,101621.00
2022-11-28T07:00:03.722Z,101620.28
2022-11-28T07:02:30.710Z,101620.50
2022-11-28T07:05:00.645Z,101624.63
2022-11-28T07:07:27.668Z,101631.88
2022-11-28T07:09:54.928Z,101628.19
2022-11-28T07:12:21.915Z,101625.50
2022-11-28T07:14:49.143Z,101618.97
2022-11-28T07:17:16.151Z,101612.16
2022-11-28T07:19:43.682Z,101621.47
2022-11-28T07:22:12.243Z,101627.41
2022-11-28T07:24:44.607Z,101619.88
2022-11-28T07:27:11.583Z,101619.19
2022-11-28T07:29:38.792Z,101605.19
2022-11-28T07:32:10.737Z,101603.31
2022-11-28T07:34:38.350Z,101609.75
2022-11-28T07:37:05.250Z,101609.44
2022-11-28T07:39:34.337Z,101604.66
2022-11-28T07:42:01.126Z,101605.19
2022-11-28T07:44:28.652Z,101604.91
2022-11-28T07:46:56.073Z,101593.31
2022-11-28T07:49:23.293Z,101590.19
2022-11-28T07:51:50.312Z,101587.47
2022-11-28T07:54:17.552Z,101579.00
2022-11-28T07:59:33.318Z,101578.69
2022-11-28T08:02:00.237Z,101582.06
2022-11-28T08:04:27.814Z,101579.53
2022-11-28T08:06:55.432Z,101579.13
2022-11-28T08:09:23.067Z,101557.97
2022-11-28T08:11:52.576Z,101574.84
2022-11-28T08:14:20.334Z,101576.81
2022-11-28T08:16:47.440Z,101587.00
2022-11-28T08:19:14.635Z,101570.91
2022-11-28T08:21:42.035Z,101586.66
2022-11-28T08:24:10.592Z,101586.06
2022-11-28T08:26:38.318Z,101573.41
2022-11-28T08:29:06.935Z,101583.59
2022-11-28T08:31:35.403Z,101581.91
2022-11-28T08:34:05.884Z,101586.91
2022-11-28T08:36:33.088Z,101581.22
2022-11-28T08:39:24.111Z,101584.59
2022-11-28T08:41:50.442Z,101585.28
2022-11-28T08:44:19.269Z,101579.56
2022-11-28T08:46:46.252Z,101580.47
2022-11-28T08:49:14.597Z,101581.56
2022-11-28T08:51:41.480Z,101583.34
2022-11-28T08:54:09.131Z,101583.50
2022-11-28T08:56:36.137Z,101580.66
2022-11-28T08:59:04.168Z,101569.09
2022-11-28T09:01:32.731Z,101564.09
2022-11-28T09:04:00.761Z,101568.31
2022-11-28T09:06:27.906Z,101572.56
2022-11-28T09:08:55.166Z,101569.63
2022-11-28T09:11:23.024Z,101567.47
2022-11-28T09:13:50.664Z,101570.78
2022-11-28T09:16:18.066Z,101568.25
2022-11-28T09:18:46.811Z,101567.69
2022-11-28T09:21:15.405Z,101562.97
2022-11-28T09:23:44.259Z,101567.75
2022-11-28T09:26:12.614Z,101557.91
2022-11-28T09:28:40.718Z,101560.16
2022-11-28T09:31:08.492Z,101548.44
2022-11-28T09:33:36.135Z,101549.19
2022-11-28T09:36:10.354Z,101551.84
2022-11-28T09:38:38.021Z,101539.00
2022-11-28T09:41:31.121Z,101546.16
2022-11-28T09:44:03.141Z,101534.94
2022-11-28T09:46:34.382Z,101540.38
2022-11-28T09:49:09.337Z,101527.38
2022-11-28T09:51:48.545Z,101535.16
2022-11-28T09:54:22.577Z,101532.50
2022-11-28T09:56:50.721Z,101529.66
2022-11-28T09:59:23.381Z,101521.84
2022-11-28T10:01:56.750Z,101516.84
2022-11-28T10:04:33.433Z,101522.31
2022-11-28T10:07:11.034Z,101517.94
2022-11-28T10:09:51.759Z,101516.44
2022-11-28T10:12:30.777Z,101511.66
2022-11-28T10:15:09.365Z,101507.94
2022-11-28T10:17:44.755Z,101510.06
2022-11-28T10:20:17.895Z,101513.13
2022-11-28T10:22:50.769Z,101509.75
2022-11-28T10:25:22.806Z,101503.88
2022-11-28T10:27:51.187Z,101503.47
2022-11-28T10:30:22.910Z,101496.50
2022-11-28T10:32:57.165Z,101489.84
2022-11-28T10:35:30.850Z,101497.19
2022-11-28T10:37:59.251Z,101495.38
2022-11-28T10:40:39.912Z,101493.56
2022-11-28T10:43:17.458Z,101489.66
2022-11-28T10:45:51.135Z,101490.59
2022-11-28T10:48:39.544Z,101487.72
2022-11-28T10:51:22.073Z,101490.72
2022-11-28T10:54:06.892Z,101492.84
2022-11-28T10:56:43.029Z,101488.34
2022-11-28T10:59:22.904Z,101494.81
2022-11-28T11:01:52.223Z,101484.34
2022-11-28T11:04:22.675Z,101493.47
2022-11-28T11:07:15.045Z,101493.00
2022-11-28T11:09:46.601Z,101493.72
2022-11-28T11:12:20.640Z,101482.28
2022-11-28T11:14:50.004Z,101482.09
2022-11-28T11:17:28.958Z,101492.78
2022-11-28T11:19:58.341Z,101486.56
2022-11-28T11:22:29.140Z,101485.06
2022-11-28T11:25:17.471Z,101483.19
2022-11-28T11:27:49.628Z,101475.44
2022-11-28T11:30:22.600Z,101477.88
2022-11-28T11:32:51.748Z,101471.63
2022-11-28T11:35:23.810Z,101472.69
2022-11-28T11:37:51.920Z,101462.47
2022-11-28T11:40:26.346Z,101473.13
2022-11-28T11:42:55.792Z,101467.97
2022-11-28T11:45:31.437Z,101468.19
2022-11-28T11:47:58.976Z,101464.09
2022-11-28T11:50:29.868Z,101460.78
2022-11-28T11:53:02.724Z,101464.91
2022-11-28T11:55:33.893Z,101461.16
2022-11-28T11:58:06.076Z,101461.69
2022-11-28T12:00:37.743Z,101430.88
2022-11-28T12:03:12.350Z,101452.13
2022-11-28T12:06:13.394Z,101448.41
2022-11-28T12:08:43.076Z,101449.88
2022-11-28T12:11:18.004Z,101444.28
2022-11-28T12:13:45.817Z,101444.31
2022-11-28T12:16:34.977Z,101449.25
2022-11-28T12:19:14.666Z,101441.72
2022-11-28T12:21:55.062Z,101443.72
2022-11-28T12:24:30.421Z,101434.69
2022-11-28T12:27:06.766Z,101430.31
2022-11-28T12:29:49.067Z,101435.06
2022-11-28T12:32:28.407Z,101435.69
2022-11-28T12:35:11.282Z,101435.06
2022-11-28T12:40:48.612Z,101443.81
2022-11-28T12:43:30.555Z,101436.00
2022-11-28T12:46:06.797Z,101440.22
2022-11-28T12:48:53.573Z,101448.63
2022-11-28T12:51:36.666Z,101439.81
2022-11-28T12:54:22.020Z,101438.66
2022-11-28T12:56:58.774Z,101436.63
2022-11-28T12:59:36.889Z,101433.78
2022-11-28T13:02:29.880Z,101440.47
2022-11-28T13:05:12.065Z,101449.16
2022-11-28T13:07:48.131Z,101437.59
2022-11-28T13:10:23.325Z,101431.13
2022-11-28T13:12:58.539Z,101429.34
2022-11-28T13:15:44.391Z,101428.38
2022-11-28T13:18:24.322Z,101429.44
2022-11-28T13:20:55.829Z,101430.50
2022-11-28T13:23:29.538Z,101434.34
2022-11-28T13:26:05.633Z,101437.41
2022-11-28T13:28:39.757Z,101436.22
2022-11-28T13:31:22.710Z,101437.91
2022-11-28T13:33:53.531Z,101412.81
2022-11-28T13:39:30.945Z,101419.06
2022-11-28T13:45:00.496Z,101422.78
2022-11-28T13:47:31.894Z,101430.06
2022-11-28T13:50:36.308Z,101418.84
2022-11-28T13:53:20.152Z,101396.19
2022-11-28T13:55:48.787Z,101416.41
2022-11-28T13:58:25.994Z,101395.13
2022-11-28T14:01:03.460Z,101414.31
2022-11-28T14:03:34.490Z,101415.38
2022-11-28T14:06:04.400Z,101411.22
2022-11-28T14:08:34.885Z,101410.25
2022-11-28T14:11:25.796Z,101409.31
2022-11-28T14:14:08.929Z,101400.63
2022-11-28T14:16:52.126Z,101407.09
2022-11-28T14:19:32.297Z,101406.44
2022-11-28T14:22:14.518Z,101402.44
2022-11-28T14:24:54.399Z,101403.69
2022-11-28T14:27:25.244Z,101404.19
2022-11-28T14:29:54.879Z,101407.56
2022-11-28T14:32:33.297Z,101410.66
2022-11-28T14:35:02.912Z,101412.59
2022-11-28T14:37:53.132Z,101404.84
2022-11-28T14:41:05.747Z,101412.25
2022-11-28T14:43:35.723Z,101409.13
2022-11-28T14:46:33.231Z,101416.66
2022-11-28T14:49:19.244Z,101411.66
2022-11-28T14:52:30.692Z,101414.72
2022-11-28T14:54:55.095Z,101414.47
2022-11-28T14:57:27.990Z,101415.91
2022-11-28T14:59:57.879Z,101392.22
2022-11-28T15:02:48.311Z,101411.94
2022-11-28T15:05:29.833Z,101414.97
2022-11-28T15:08:16.331Z,101413.59
2022-11-28T15:10:50.729Z,101406.78
2022-11-28T15:13:38.943Z,101410.47
2022-11-28T15:16:11.891Z,101413.41
2022-11-28T15:18:43.346Z,101413.63
2022-11-28T15:21:16.385Z,101415.56
2022-11-28T15:23:46.828Z,101408.25
2022-11-28T15:26:19.984Z,101410.31
2022-11-28T15:28:46.964Z,101411.63
2022-11-28T15:31:21.703Z,101418.91
2022-11-28T15:33:50.147Z,101382.53
2022-11-28T15:36:26.174Z,101416.75
2022-11-28T15:38:55.198Z,101412.50
2022-11-28T15:41:24.240Z,101419.88
2022-11-28T15:43:52.312Z,101416.72
2022-11-28T15:46:26.002Z,101414.28
2022-11-28T15:48:53.768Z,101415.41
2022-11-28T15:51:29.614Z,101411.53
2022-11-28T15:53:59.734Z,101413.13
2022-11-28T15:56:27.011Z,101415.97
2022-11-28T15:58:54.547Z,101421.41
2022-11-28T16:01:23.730Z,101422.56
2022-11-28T16:03:53.600Z,101417.66
2022-11-28T16:06:23.654Z,101395.81
2022-11-28T16:08:54.425Z,101419.78
2022-11-28T16:11:25.339Z,101412.47
2022-11-28T16:13:54.120Z,101419.44
2022-11-28T16:16:25.650Z,101416.16
2022-11-28T16:18:57.010Z,101416.44
2022-11-28T16:21:28.560Z,101409.13
2022-11-28T16:24:00.767Z,101418.16
2022-11-28T16:26:35.022Z,101407.88
2022-11-28T16:29:11.853Z,101412.50
2022-11-28T16:31:39.834Z,101421.69
2022-11-28T16:34:12.483Z,101423.75
2022-11-28T16:36:40.069Z,101429.91
2022-11-28T16:39:14.540Z,101428.72
2022-11-28T16:41:50.144Z,101429.16
2022-11-28T16:44:22.116Z,101431.44
2022-11-28T16:46:51.800Z,101428.47
2022-11-28T16:49:34.994Z,101428.63
2022-11-28T16:52:49.551Z,101434.25
2022-11-28T16:55:44.701Z,101437.91
2022-11-28T16:58:16.558Z,101427.97
2022-11-28T17:00:47.831Z,101437.63
2022-11-28T17:03:44.916Z,101439.72
2022-11-28T17:06:16.675Z,101432.94
2022-11-28T17:08:44.076Z,101428.59
2022-11-28T17:11:14.267Z,101427.69
2022-11-28T17:13:42.937Z,101424.84
2022-11-28T17:16:21.356Z,101434.63
2022-11-28T17:18:48.979Z,101424.78
2022-11-28T17:21:18.606Z,101425.41
2022-11-28T17:23:46.219Z,101417.41
2022-11-28T17:26:13.146Z,101422.84
2022-11-28T17:28:40.475Z,101419.59
2022-11-28T17:31:11.252Z,101423.09
2022-11-28T17:33:43.226Z,101420.78
2022-11-28T17:36:13.457Z,101425.44
2022-11-28T17:38:40.860Z,101425.63
2022-11-28T17:41:12.944Z,101427.63
2022-11-28T17:43:40.881Z,101424.16
2022-11-28T17:46:11.721Z,101423.38
2022-11-28T17:48:39.108Z,101426.28
2022-11-28T17:51:08.766Z,101429.22
2022-11-28T17:53:40.391Z,101425.84
2022-11-28T17:56:10.607Z,101417.19
2022-11-28T17:58:38.412Z,101426.19
2022-11-28T18:01:11.423Z,101428.81
2022-11-28T18:03:39.938Z,101423.38
2022-11-28T18:06:14.095Z,101426.81
2022-11-28T18:08:41.303Z,101421.84
2022-11-28T18:11:11.123Z,101408.47
2022-11-28T18:13:38.608Z,101421.13
2022-11-28T18:16:06.303Z,101423.97
2022-11-28T18:18:35.052Z,101423.25
2022-11-28T18:21:02.079Z,101425.97
2022-11-28T18:23:29.389Z,101421.13
2022-11-28T18:25:56.651Z,101419.28
2022-11-28T18:28:24.678Z,101423.09
2022-11-28T18:30:51.793Z,101423.50
2022-11-28T18:33:19.027Z,101421.47
2022-11-28T18:35:47.640Z,101418.78
2022-11-28T18:38:14.898Z,101415.81
2022-11-28T18:40:41.784Z,101421.78
2022-11-28T18:43:10.380Z,101426.72
2022-11-28T18:45:37.359Z,101416.91
2022-11-28T18:48:04.913Z,101410.78
2022-11-28T18:50:32.206Z,101416.09
2022-11-28T18:53:00.908Z,101406.31
2022-11-28T18:55:27.866Z,101412.34
2022-11-28T18:57:55.147Z,101413.41
2022-11-28T19:00:23.316Z,101413.66
2022-11-28T19:02:52.125Z,101420.78
2022-11-28T19:05:19.218Z,101426.16
2022-11-28T19:07:46.432Z,101414.94
2022-11-28T19:10:14.912Z,101417.44
2022-11-28T19:12:42.223Z,101414.97
2022-11-28T19:15:11.730Z,101382.16
2022-11-28T19:17:39.118Z,101411.88
2022-11-28T19:20:07.311Z,101414.34
2022-11-28T19:22:35.669Z,101412.41
2022-11-28T19:25:02.719Z,101411.09
2022-11-28T19:27:31.404Z,101385.63
2022-11-28T19:29:58.319Z,101417.19
2022-11-28T19:32:27.685Z,101410.69
2022-11-28T19:34:54.784Z,101415.31
2022-11-28T19:37:22.207Z,101403.03
2022-11-28T19:39:49.096Z,101408.97
2022-11-28T19:42:16.390Z,101408.44
2022-11-28T19:44:44.672Z,101402.91
2022-11-28T19:47:11.916Z,101405.47
2022-11-28T19:49:39.000Z,101405.88
2022-11-28T19:52:06.255Z,101407.59
2022-11-28T19:54:34.776Z,101395.03
2022-11-28T19:57:02.022Z,101398.34
2022-11-28T19:59:30.448Z,101368.78
2022-11-28T20:01:59.051Z,101392.31
2022-11-28T20:04:26.403Z,101400.16
2022-11-28T20:06:53.651Z,101392.19
2022-11-28T20:09:20.569Z,101392.63
2022-11-28T20:11:47.715Z,101396.94
2022-11-28T20:14:16.857Z,101392.97
2022-11-28T20:16:44.687Z,101405.38
2022-11-28T20:19:14.812Z,101392.91
2022-11-28T20:21:42.239Z,101394.28
2022-11-28T20:24:10.314Z,101390.63
2022-11-28T20:26:39.982Z,101397.50
2022-11-28T20:29:07.969Z,101387.59
2022-11-28T20:31:36.988Z,101382.13
2022-11-28T20:34:04.578Z,101389.03
2022-11-28T20:36:34.116Z,101389.53
2022-11-28T20:39:03.755Z,101390.56
2022-11-28T20:41:31.322Z,101390.88
2022-11-28T20:43:59.863Z,101384.59
2022-11-28T20:46:30.184Z,101393.78
2022-11-28T20:48:59.044Z,101380.34
2022-11-28T20:51:28.491Z,101395.31
2022-11-28T20:53:57.459Z,101392.84
2022-11-28T20:56:25.501Z,101390.38
2022-11-28T20:58:55.315Z,101381.81
2022-11-28T21:01:24.809Z,101381.63
2022-11-28T21:03:52.767Z,101371.00
2022-11-28T21:06:20.477Z,101381.53
2022-11-28T21:08:47.888Z,101386.09
2022-11-28T21:11:43.531Z,101388.88
2022-11-28T21:14:06.567Z,101387.44
2022-11-28T21:16:35.127Z,101362.19
2022-11-28T21:19:05.222Z,101380.25
2022-11-28T21:21:33.617Z,101381.44
2022-11-28T21:24:03.434Z,101382.50
2022-11-28T21:26:37.635Z,101375.03
2022-11-28T21:29:09.283Z,101375.19
2022-11-28T21:31:39.577Z,101375.28
2022-11-28T21:34:06.591Z,101366.69
2022-11-28T21:36:33.743Z,101371.97
2022-11-28T21:39:01.752Z,101365.16
2022-11-28T21:41:31.161Z,101362.75
2022-11-28T21:43:59.768Z,101366.22
2022-11-28T21:46:27.938Z,101370.66
2022-11-28T21:48:55.042Z,101370.03
2022-11-28T21:51:25.675Z,101374.59
2022-11-28T21:53:58.983Z,101374.75
2022-11-28T21:56:26.666Z,101376.84
2022-11-28T21:58:54.002Z,101380.34
2022-11-28T22:01:22.608Z,101376.06
2022-11-28T22:03:49.676Z,101379.94
2022-11-28T22:06:20.047Z,101384.59
2022-11-28T22:08:48.563Z,101382.22
2022-11-28T22:11:16.160Z,101370.13
2022-11-28T22:13:45.223Z,101374.47
2022-11-28T22:16:16.044Z,101382.59
2022-11-28T22:18:45.661Z,101362.66
2022-11-28T22:21:49.892Z,101380.06
2022-11-28T22:24:02.581Z,101375.00
2022-11-28T22:26:29.726Z,101382.81
2022-11-28T22:28:58.634Z,101363.78
2022-11-28T22:31:25.972Z,101373.16
2022-11-28T22:33:54.365Z,101367.13
2022-11-28T22:36:21.887Z,101364.59
2022-11-28T22:38:53.575Z,101368.22
2022-11-28T22:41:28.496Z,101369.16
2022-11-28T22:43:57.107Z,101370.03
2022-11-28T22:46:24.458Z,101366.66
2022-11-28T22:48:52.045Z,101362.56
2022-11-28T22:51:21.952Z,101356.38
2022-11-28T22:53:52.796Z,101345.88
2022-11-28T22:56:19.971Z,101341.53
2022-11-28T22:58:46.852Z,101351.13
2022-11-28T23:01:15.747Z,101342.59
2022-11-28T23:03:44.231Z,101344.53
2022-11-28T23:06:13.300Z,101340.56
2022-11-28T23:08:42.233Z,101340.88
2022-11-28T23:11:12.496Z,101349.69
2022-11-28T23:13:39.910Z,101333.09
2022-11-28T23:16:15.327Z,101339.41
2022-11-28T23:18:43.205Z,101339.69
2022-11-28T23:21:16.044Z,101322.69
2022-11-28T23:23:45.831Z,101335.72
2022-11-28T23:26:14.838Z,101335.81
2022-11-28T23:28:42.276Z,101328.84
2022-11-28T23:31:13.116Z,101334.03
2022-11-28T23:33:40.485Z,101308.44
2022-11-28T23:36:13.402Z,101333.91
2022-11-28T23:38:40.342Z,101338.28
2022-11-28T23:41:09.127Z,101345.28
2022-11-28T23:43:36.013Z,101326.09
2022-11-28T23:46:03.811Z,101330.06
2022-11-28T23:48:31.022Z,101329.06
2022-11-28T23:50:58.263Z,101324.63
2022-11-28T23:53:25.401Z,101330.75
2022-11-28T23:55:52.508Z,101332.50
2022-11-28T23:58:20.975Z,101329.06
